Terminal Aerodrome Forecast
Issued by NWS

Current Version | Previous Version | Graphics & Text | Print | Product List | Glossary On
Versions: 1 2 3 4 5 6 7 8 9 10 11 12 13 14 15 16 17 18 19 20 21 22 23 24 25
000
FTUS41 KILN 291100
TAFLCK
TAF
KLCK 291130Z 2912/3012 16008KT 5SM -SHRA OVC040
     FM291600 17012G18KT P6SM VCSH BKN040
     FM292000 18012G20KT P6SM VCTS BKN040CB
     FM300000 19012KT P6SM VCSH BKN035
     FM300400 23010KT P6SM BKN035=

USA.gov is the U.S. government's official web portal to all federal, state and local government web resources and services.